Time;durP1;ratioP1;P1;durP2;ratioP2;P2;SDS_P1;SDS_P2;PMS_P1;PMS_P2;Temp;Humidity;BMP_temperature;BMP_pressure;BME280_temperature;BME280_humidity;BME280_pressure;Samples;Min_cycle;Max_cycle;Signal;HPM_P1;HPM_P2
2022/02/09 00:02:25;;;;;;;4.43;0.70;;;30.00;91.10;;;;;;4959144;28;20047;-72
2022/02/09 00:07:05;;;;;;;4.22;0.85;;;30.10;90.60;;;;;;4959544;28;20041;-72
2022/02/09 00:09:33;;;;;;;4.07;1.88;;;30.40;91.10;;;;;;4961243;28;20034;-72
2022/02/09 00:12:06;;;;;;;6.65;0.98;;;30.70;90.20;;;;;;4960603;28;20023;-73
2022/02/09 00:17:28;;;;;;;3.30;0.88;;;30.90;89.90;;;;;;4963725;28;20059;-73
2022/02/09 00:39:44;;;;;;;5.60;1.73;;;32.30;81.50;;;;;;4923735;29;20510;-74
2022/02/09 01:33:07;;;;;;;4.75;0.30;;;33.60;80.10;;;;;;4962218;28;20042;-74
2022/02/09 01:40:49;;;;;;;1.88;0.10;;;34.30;71.20;;;;;;4961347;28;19949;-71
2022/02/09 01:43:53;;;;;;;1.75;0.20;;;34.60;73.70;;;;;;4964413;28;20030;-73
2022/02/09 01:57:09;;;;;;;0.57;0.17;;;35.10;71.20;;;;;;4966499;28;20376;-73
2022/02/09 01:59:39;;;;;;;0.73;0.30;;;35.10;67.40;;;;;;4966733;28;20031;-74
2022/02/09 02:02:07;;;;;;;0.03;0.03;;;34.80;66.80;;;;;;4965137;28;20039;-72
2022/02/09 02:04:35;;;;;;;1.38;0.17;;;34.90;69.00;;;;;;4956952;28;20027;-72
2022/02/09 02:07:08;;;;;;;0.20;0.10;;;35.40;69.60;;;;;;4968932;28;20022;-73
2022/02/09 02:09:37;;;;;;;0.80;0.15;;;35.70;70.00;;;;;;4966117;28;20105;-72
2022/02/09 02:12:13;;;;;;;0.35;0.20;;;36.10;69.70;;;;;;4970431;28;20145;-72
2022/02/09 02:14:46;;;;;;;0.68;0.10;;;36.50;68.50;;;;;;4970808;28;20102;-72
2022/02/09 02:17:42;;;;;;;0.60;0.10;;;36.50;68.20;;;;;;4971540;28;20038;-72
2022/02/09 02:20:12;;;;;;;0.75;0.20;;;36.50;67.90;;;;;;4965449;28;20047;-72
2022/02/09 02:23:02;;;;;;;2.58;0.10;;;36.80;66.60;;;;;;4951878;28;20073;-73
2022/02/09 03:11:01;;;;;;;0.20;0.10;;;36.90;59.00;;;;;;4968019;28;20027;-73
2022/02/09 03:13:33;;;;;;;1.02;0.00;;;37.10;59.80;;;;;;4968367;28;20031;-72
2022/02/09 03:16:14;;;;;;;1.75;0.10;;;37.30;60.30;;;;;;4965281;28;20078;-73
2022/02/09 03:21:34;;;;;;;1.48;0.43;;;37.70;59.70;;;;;;4966565;28;20031;-72
2022/02/09 03:24:10;;;;;;;0.32;0.10;;;37.90;58.60;;;;;;4965976;28;20035;-72
2022/02/09 03:27:03;;;;;;;0.73;0.15;;;37.80;60.80;;;;;;4970166;28;20405;-72
2022/02/09 03:48:48;;;;;;;0.98;0.10;;;36.90;58.30;;;;;;4963354;28;20133;-73
2022/02/09 03:51:36;;;;;;;0.57;0.10;;;37.30;57.10;;;;;;4960348;28;20449;-73
2022/02/09 03:56:43;;;;;;;0.10;0.00;;;37.80;56.70;;;;;;4966215;28;20037;-74
2022/02/09 03:59:13;;;;;;;0.10;0.00;;;37.90;56.70;;;;;;4962002;28;20026;-73
2022/02/09 04:01:43;;;;;;;1.75;0.10;;;37.60;56.30;;;;;;4966839;28;20035;-72
2022/02/09 04:04:11;;;;;;;4.03;0.20;;;37.20;56.10;;;;;;4966389;28;20448;-72
2022/02/09 04:06:39;;;;;;;0.47;0.13;;;36.60;56.10;;;;;;4965241;28;20026;-73
2022/02/09 04:09:12;;;;;;;0.20;0.05;;;36.10;55.70;;;;;;4963035;28;20430;-74
2022/02/09 04:11:52;;;;;;;0.35;0.10;;;35.60;57.50;;;;;;4967347;28;20346;-75
2022/02/09 04:14:34;;;;;;;0.22;0.10;;;35.30;57.80;;;;;;4977695;28;20109;-72
2022/02/09 04:51:33;;;;;;;0.47;0.17;;;37.70;55.00;;;;;;4962177;28;20053;-73
2022/02/09 04:56:52;;;;;;;0.90;0.00;;;37.70;55.30;;;;;;4965131;28;20168;-72
2022/02/09 04:59:30;;;;;;;1.07;0.10;;;37.50;54.90;;;;;;4946026;28;20362;-73
2022/02/09 05:24:08;;;;;;;0.85;0.10;;;37.10;56.00;;;;;;4969955;28;19917;-74
2022/02/09 05:29:05;;;;;;;0.65;0.10;;;36.60;55.20;;;;;;4972147;28;20030;-73
2022/02/09 05:31:33;;;;;;;1.05;0.20;;;36.10;56.80;;;;;;4968343;28;20430;-73
2022/02/09 05:34:00;;;;;;;0.93;0.40;;;35.70;57.10;;;;;;4963966;28;20085;-73
2022/02/09 05:36:27;;;;;;;1.02;0.20;;;35.70;57.20;;;;;;4957928;28;20027;-74
2022/02/09 05:38:56;;;;;;;2.50;0.20;;;36.00;57.40;;;;;;4963685;28;20053;-72
2022/02/09 05:41:24;;;;;;;0.93;0.10;;;36.10;57.80;;;;;;4959626;28;20154;-72
2022/02/09 05:43:51;;;;;;;0.50;0.10;;;36.30;55.50;;;;;;4964645;28;20740;-72
2022/02/09 05:49:38;;;;;;;1.13;0.50;;;36.40;57.70;;;;;;4961818;28;20595;-74
2022/02/09 05:56:46;;;;;;;16.48;4.57;;;36.10;55.70;;;;;;4963269;28;20658;-72
2022/02/09 05:59:28;;;;;;;4.68;0.63;;;35.90;56.60;;;;;;4969273;28;20061;-73
2022/02/09 06:01:58;;;;;;;1.80;0.57;;;35.80;55.70;;;;;;4962935;28;20137;-73
2022/02/09 06:04:26;;;;;;;0.63;0.10;;;35.80;55.90;;;;;;4971209;28;20038;-72
2022/02/09 06:06:54;;;;;;;2.00;0.60;;;35.80;56.40;;;;;;4969183;28;20423;-72
2022/02/09 06:09:21;;;;;;;1.77;0.40;;;35.70;58.70;;;;;;4972320;28;20031;-73
2022/02/09 06:12:02;;;;;;;8.30;0.50;;;35.40;59.50;;;;;;4969179;28;20062;-73
2022/02/09 06:14:52;;;;;;;1.85;0.35;;;35.20;60.10;;;;;;4972043;28;20102;-73
2022/02/09 06:20:08;;;;;;;2.17;0.40;;;34.80;60.10;;;;;;4969401;28;20046;-71
2022/02/09 06:22:36;;;;;;;2.08;0.52;;;34.50;59.90;;;;;;4970247;28;20030;-71
2022/02/09 06:25:03;;;;;;;2.63;1.08;;;34.20;60.60;;;;;;4966982;28;20043;-71
2022/02/09 06:27:31;;;;;;;3.08;0.40;;;33.90;60.50;;;;;;4968288;28;20331;-72
2022/02/09 06:29:58;;;;;;;2.33;0.50;;;33.70;61.00;;;;;;4964344;28;20105;-73
2022/02/09 06:32:27;;;;;;;0.77;0.35;;;33.60;61.60;;;;;;4971982;28;20386;-73
2022/02/09 06:34:54;;;;;;;1.73;0.30;;;33.40;61.60;;;;;;4968092;28;20033;-75
2022/02/09 06:37:36;;;;;;;3.70;0.30;;;33.30;62.30;;;;;;4963814;28;20031;-74
2022/02/09 06:40:04;;;;;;;1.13;0.20;;;33.20;61.90;;;;;;4961716;28;20046;-74
2022/02/09 06:42:34;;;;;;;2.08;0.30;;;33.20;62.00;;;;;;4963186;28;20031;-75
2022/02/09 06:45:11;;;;;;;2.10;0.30;;;33.20;61.60;;;;;;4963001;28;20149;-76
2022/02/09 06:47:40;;;;;;;1.15;0.32;;;33.20;61.50;;;;;;4963347;28;20030;-73
2022/02/09 06:50:12;;;;;;;1.40;0.40;;;33.20;62.00;;;;;;4960579;28;20038;-74
2022/02/09 06:52:44;;;;;;;0.50;0.30;;;33.20;61.50;;;;;;4964869;28;20030;-74
2022/02/09 06:55:20;;;;;;;1.77;0.38;;;33.20;62.50;;;;;;4965491;28;20459;-73
2022/02/09 07:00:21;;;;;;;0.73;0.22;;;32.90;62.50;;;;;;4959270;28;20038;-74
2022/02/09 07:02:48;;;;;;;2.20;0.50;;;32.80;62.50;;;;;;4962198;28;20062;-77
2022/02/09 07:05:17;;;;;;;3.00;0.40;;;32.80;62.90;;;;;;4962228;28;20037;-78
2022/02/09 07:07:45;;;;;;;3.15;0.30;;;32.70;62.70;;;;;;4963963;28;20038;-78
2022/02/09 07:10:13;;;;;;;0.28;0.20;;;32.70;62.60;;;;;;4961192;28;20034;-78
2022/02/09 07:12:44;;;;;;;1.10;0.40;;;32.70;62.80;;;;;;4964339;28;20482;-76
2022/02/09 07:15:16;;;;;;;1.27;0.68;;;32.60;62.70;;;;;;4967775;28;20039;-76
2022/02/09 07:17:44;;;;;;;1.50;0.30;;;32.60;62.70;;;;;;4969212;28;20109;-76
2022/02/09 07:20:20;;;;;;;1.75;0.40;;;32.40;62.60;;;;;;4966234;28;20042;-78
2022/02/09 07:22:51;;;;;;;0.88;0.30;;;32.30;63.00;;;;;;4969971;28;20031;-77
2022/02/09 07:25:20;;;;;;;1.33;0.38;;;32.20;62.90;;;;;;4969335;28;20050;-77
2022/02/09 07:27:52;;;;;;;1.23;0.28;;;32.20;63.90;;;;;;4970494;28;20026;-75
2022/02/09 07:30:24;;;;;;;0.68;0.25;;;32.10;63.70;;;;;;4966468;28;20461;-75
2022/02/09 07:33:04;;;;;;;2.03;0.20;;;32.00;63.90;;;;;;4969837;28;20035;-75
2022/02/09 07:35:31;;;;;;;0.60;0.22;;;31.90;64.40;;;;;;4967388;28;20148;-76
2022/02/09 07:38:00;;;;;;;1.13;0.40;;;31.80;64.70;;;;;;4968293;28;20026;-75
2022/02/09 07:40:27;;;;;;;1.92;0.50;;;31.70;64.30;;;;;;4964989;28;20045;-75
2022/02/09 07:42:59;;;;;;;0.85;0.30;;;31.50;64.20;;;;;;4969490;28;20031;-75
2022/02/09 07:45:59;;;;;;;1.30;0.40;;;31.40;64.20;;;;;;4968884;28;20027;-74
2022/02/09 07:48:55;;;;;;;5.95;0.80;;;31.30;64.20;;;;;;4968306;28;20029;-74
2022/02/09 07:54:01;;;;;;;1.73;0.38;;;30.70;65.50;;;;;;4969177;28;20013;-76
2022/02/09 07:56:34;;;;;;;3.13;0.40;;;30.70;65.40;;;;;;4968867;28;20035;-77
2022/02/09 07:59:03;;;;;;;1.83;0.65;;;30.50;65.50;;;;;;4968940;28;20038;-77
2022/02/09 08:01:30;;;;;;;0.95;0.35;;;30.50;65.80;;;;;;4966940;28;20053;-75
2022/02/09 08:03:58;;;;;;;3.90;0.70;;;30.40;65.20;;;;;;4971642;28;20389;-74
2022/02/09 08:06:26;;;;;;;4.78;0.80;;;30.40;65.80;;;;;;4952747;28;20042;-74
2022/02/09 08:08:57;;;;;;;1.48;0.80;;;30.30;66.00;;;;;;4967745;28;20053;-75
2022/02/09 08:11:48;;;;;;;0.50;0.20;;;30.20;66.20;;;;;;4966576;28;20478;-75
2022/02/09 08:33:08;;;;;;;2.15;0.38;;;29.10;65.70;;;;;;4970876;28;20438;-73
2022/02/09 08:35:37;;;;;;;1.33;0.38;;;29.10;65.60;;;;;;4968269;28;20038;-75
2022/02/09 08:38:04;;;;;;;1.55;0.30;;;28.90;65.70;;;;;;4966148;28;20030;-73
2022/02/09 08:40:31;;;;;;;2.08;0.60;;;28.90;66.20;;;;;;4967520;28;20054;-73
2022/02/09 08:42:59;;;;;;;2.15;1.02;;;28.80;66.20;;;;;;4969642;28;20098;-72
2022/02/09 08:45:27;;;;;;;2.08;0.40;;;28.70;66.70;;;;;;4968255;28;20118;-72
2022/02/09 08:47:56;;;;;;;1.10;0.30;;;28.70;66.70;;;;;;4970035;28;20494;-74
2022/02/09 08:50:23;;;;;;;1.17;0.32;;;28.60;66.70;;;;;;4956145;28;20019;-73
2022/02/09 08:52:52;;;;;;;1.30;0.30;;;28.50;66.90;;;;;;4970649;28;20047;-75
2022/02/09 08:55:20;;;;;;;0.40;0.30;;;28.40;67.60;;;;;;4969982;28;20015;-76
2022/02/09 08:57:48;;;;;;;2.15;0.57;;;28.30;67.00;;;;;;4953485;28;20113;-76
2022/02/09 09:00:27;;;;;;;1.60;0.50;;;28.20;67.20;;;;;;4966137;28;20122;-75
2022/02/09 09:03:14;;;;;;;0.57;0.30;;;28.00;67.20;;;;;;4967166;28;20347;-77
2022/02/09 09:05:46;;;;;;;1.23;0.30;;;28.00;67.70;;;;;;4970408;28;20058;-77
2022/02/09 09:12:03;;;;;;;0.50;0.30;;;27.70;68.10;;;;;;4966485;28;20077;-78
2022/02/09 09:58:00;;;;;;;2.90;0.43;;;26.90;70.50;;;;;;4972438;28;20050;-76
2022/02/09 10:03:31;;;;;;;5.72;0.88;;;26.30;74.20;;;;;;4971773;28;20537;-85
2022/02/09 10:34:20;;;;;;;1.35;0.43;;;25.30;77.20;;;;;;4972236;28;20031;-85
2022/02/09 10:36:55;;;;;;;2.08;0.50;;;25.20;77.80;;;;;;4970529;28;20027;-86
2022/02/09 10:39:32;;;;;;;3.27;0.53;;;25.20;79.10;;;;;;4972165;28;20034;-84
2022/02/09 10:42:18;;;;;;;2.38;0.57;;;25.10;80.10;;;;;;4972296;28;20046;-76
2022/02/09 10:44:51;;;;;;;3.05;0.50;;;25.00;80.30;;;;;;4971562;28;20047;-80
2022/02/09 10:47:21;;;;;;;4.03;0.40;;;24.90;80.10;;;;;;4972969;28;20416;-84
2022/02/09 10:50:08;;;;;;;1.35;0.50;;;24.90;80.70;;;;;;4969501;28;20035;-84
2022/02/09 10:52:40;;;;;;;2.28;0.57;;;24.80;80.90;;;;;;4962102;28;20581;-84
2022/02/09 10:55:34;;;;;;;1.80;0.80;;;24.80;81.10;;;;;;4966436;28;20696;-87
2022/02/09 10:58:03;;;;;;;4.65;0.50;;;24.70;81.30;;;;;;4957492;28;20126;-78
2022/02/09 11:00:31;;;;;;;2.17;0.63;;;24.70;81.70;;;;;;4967205;28;20121;-86
2022/02/09 11:02:59;;;;;;;1.83;0.45;;;24.70;81.00;;;;;;4972992;28;20031;-75
2022/02/09 11:05:27;;;;;;;3.10;0.70;;;24.60;80.50;;;;;;4967292;28;20034;-83
2022/02/09 11:07:55;;;;;;;1.55;0.68;;;24.60;80.90;;;;;;4969225;28;20478;-83
2022/02/09 11:10:24;;;;;;;1.73;1.00;;;24.60;81.30;;;;;;4970503;28;20030;-81
2022/02/09 11:12:53;;;;;;;3.20;0.45;;;24.50;81.60;;;;;;4970316;28;20093;-81
2022/02/09 11:15:22;;;;;;;2.15;0.50;;;24.50;81.50;;;;;;4970670;28;20080;-81
2022/02/09 11:17:50;;;;;;;4.25;0.60;;;24.50;81.40;;;;;;4970123;28;20074;-80
2022/02/09 11:20:24;;;;;;;1.02;0.40;;;24.50;81.10;;;;;;4969197;28;20045;-83
2022/02/09 11:22:51;;;;;;;1.15;0.43;;;24.40;81.30;;;;;;4976321;28;20019;-79
2022/02/09 11:25:32;;;;;;;1.23;0.50;;;24.40;81.20;;;;;;4972184;28;20043;-82
2022/02/09 11:28:32;;;;;;;2.65;0.70;;;24.30;81.20;;;;;;4971196;28;20015;-83
2022/02/09 11:31:14;;;;;;;4.45;0.85;;;24.30;81.70;;;;;;4964911;28;20027;-79
2022/02/09 11:33:56;;;;;;;2.90;1.10;;;24.20;81.50;;;;;;4974533;28;20030;-83
2022/02/09 11:36:45;;;;;;;3.25;1.10;;;24.20;81.90;;;;;;4974535;28;20033;-82
2022/02/09 11:39:48;;;;;;;2.45;0.77;;;24.20;81.90;;;;;;4973516;28;20118;-73
2022/02/09 11:42:58;;;;;;;3.78;1.52;;;24.10;81.90;;;;;;4962697;28;20019;-78
2022/02/09 12:11:08;;;;;;;4.57;0.80;;;23.70;83.00;;;;;;4971309;28;20070;-80
2022/02/09 12:19:23;;;;;;;0.90;0.50;;;23.50;87.50;;;;;;4970773;28;20085;-86
2022/02/09 12:24:23;;;;;;;2.15;1.13;;;23.30;89.70;;;;;;4970588;28;20089;-80
2022/02/09 12:27:04;;;;;;;2.00;0.77;;;23.20;90.00;;;;;;4965226;28;20034;-83
2022/02/09 12:29:40;;;;;;;1.27;0.68;;;23.10;90.10;;;;;;4964907;28;20031;-81
2022/02/09 12:32:16;;;;;;;1.77;0.90;;;23.00;90.50;;;;;;4968951;28;20034;-78
2022/02/09 12:35:08;;;;;;;1.42;0.50;;;23.00;90.70;;;;;;4978485;28;20058;-80
2022/02/09 12:37:41;;;;;;;0.82;0.50;;;22.90;90.90;;;;;;4967902;28;20046;-76
2022/02/09 12:40:15;;;;;;;1.42;0.80;;;22.90;90.90;;;;;;4970257;28;20423;-82
2022/02/09 12:42:46;;;;;;;1.30;0.52;;;22.70;90.70;;;;;;4973190;28;20478;-77
2022/02/09 12:45:19;;;;;;;2.90;0.85;;;22.70;90.50;;;;;;4964356;28;20077;-76
2022/02/09 12:47:51;;;;;;;3.75;0.60;;;22.60;90.60;;;;;;4962150;28;20039;-77
2022/02/09 12:50:23;;;;;;;3.10;0.68;;;22.60;90.90;;;;;;4962386;28;20062;-78
2022/02/09 12:52:52;;;;;;;1.67;0.47;;;22.60;91.10;;;;;;4963364;28;20034;-81
2022/02/09 12:55:22;;;;;;;2.13;0.57;;;22.60;91.30;;;;;;4963771;28;20030;-76
2022/02/09 12:57:53;;;;;;;1.75;0.70;;;22.50;91.40;;;;;;4945508;28;20089;-81
2022/02/09 13:00:47;;;;;;;2.78;0.82;;;22.50;91.40;;;;;;4967667;28;20441;-75
2022/02/09 13:03:22;;;;;;;1.73;0.73;;;22.40;91.50;;;;;;4971589;28;20027;-80
2022/02/09 13:05:51;;;;;;;3.72;1.30;;;22.40;90.90;;;;;;4971504;28;20097;-75
2022/02/09 13:08:23;;;;;;;3.75;1.08;;;22.40;89.60;;;;;;4970594;28;20516;-82
2022/02/09 13:11:00;;;;;;;3.03;1.65;;;22.40;89.10;;;;;;4968202;28;20035;-76
2022/02/09 13:13:31;;;;;;;2.40;1.00;;;22.40;89.30;;;;;;4969203;28;20139;-83
2022/02/09 13:16:14;;;;;;;2.42;1.02;;;22.40;89.20;;;;;;4968001;28;20054;-74
2022/02/09 13:53:41;;;;;;;2.63;1.42;;;21.70;93.50;;;;;;4970709;28;20101;-75
2022/02/09 14:05:09;;;;;;;1.70;0.90;;;21.60;93.00;;;;;;4972271;28;20073;-76
2022/02/09 14:54:59;;;;;;;2.53;0.80;;;20.90;96.10;;;;;;4969418;28;20031;-77
2022/02/09 14:57:32;;;;;;;2.42;0.80;;;20.80;96.00;;;;;;4970965;28;20034;-73
2022/02/09 15:05:25;;;;;;;1.77;0.63;;;20.70;96.80;;;;;;4970099;28;20045;-77
2022/02/09 15:07:55;;;;;;;1.23;0.75;;;20.70;97.00;;;;;;4987593;28;20475;-78
2022/02/09 15:10:31;;;;;;;;;;;20.70;97.00;;;;;;4982312;28;20125;-81
2022/02/09 15:13:17;;;;;;;2.70;0.75;;;20.70;97.10;;;;;;4967290;28;19909;-74
2022/02/09 15:16:32;;;;;;;1.67;0.70;;;20.60;96.60;;;;;;4969152;28;20466;-76
2022/02/09 15:24:19;;;;;;;0.70;0.60;;;20.60;97.20;;;;;;4931930;29;20133;-74
2022/02/09 15:26:49;;;;;;;3.25;1.02;;;20.50;97.40;;;;;;4960847;28;20077;-76
2022/02/09 15:29:17;;;;;;;1.67;1.17;;;20.50;97.70;;;;;;4969732;28;20055;-75
2022/02/09 15:31:55;;;;;;;2.50;0.88;;;20.50;98.00;;;;;;4967594;28;20030;-79
2022/02/09 15:34:32;;;;;;;2.65;1.13;;;20.50;98.00;;;;;;4972402;28;20030;-77
2022/02/09 15:37:12;;;;;;;2.33;2.05;;;20.40;98.00;;;;;;4970730;28;20431;-76
2022/02/09 15:39:49;;;;;;;2.45;0.88;;;20.40;98.20;;;;;;4970603;28;20038;-75
2022/02/09 16:09:27;;;;;;;1.80;1.23;;;20.00;99.90;;;;;;4971435;28;20458;-73
2022/02/09 16:23:03;;;;;;;3.30;1.25;;;19.80;99.90;;;;;;4959279;28;20166;-72
2022/02/09 16:44:38;;;;;;;3.15;1.10;;;19.60;99.90;;;;;;4975251;28;20390;-76
2022/02/09 16:47:18;;;;;;;1.67;1.10;;;19.60;99.90;;;;;;4972447;28;20112;-73
2022/02/09 16:50:08;;;;;;;2.38;1.45;;;19.50;99.90;;;;;;4974144;28;20081;-75
2022/02/09 16:52:43;;;;;;;3.72;1.15;;;19.50;99.90;;;;;;4971614;28;20490;-78
2022/02/09 17:19:38;;;;;;;1.60;1.00;;;19.30;99.90;;;;;;4987184;28;20041;-77
2022/02/09 17:22:06;;;;;;;1.67;1.17;;;19.20;99.90;;;;;;4973967;28;20103;-76
2022/02/09 17:24:33;;;;;;;5.47;0.95;;;19.20;99.90;;;;;;4973578;28;20023;-74
2022/02/09 17:27:01;;;;;;;1.73;0.85;;;19.20;99.90;;;;;;4969422;28;20397;-76
2022/02/09 17:29:46;;;;;;;3.70;1.10;;;19.20;99.90;;;;;;4964074;28;20023;-75
2022/02/09 17:53:37;;;;;;;1.70;0.75;;;19.00;99.90;;;;;;4973022;28;20053;-74
2022/02/09 17:56:18;;;;;;;1.85;0.90;;;19.00;99.90;;;;;;4970837;28;21230;-72
2022/02/09 17:58:47;;;;;;;0.85;0.75;;;19.00;99.90;;;;;;4954599;28;20135;-73
2022/02/09 18:01:16;;;;;;;2.22;1.02;;;18.90;99.90;;;;;;4969319;28;20050;-75
2022/02/09 18:03:44;;;;;;;0.82;0.63;;;18.90;99.90;;;;;;4954107;28;20027;-75
2022/02/09 18:06:18;;;;;;;5.82;1.00;;;18.90;99.90;;;;;;4971345;28;20164;-76
2022/02/09 18:29:59;;;;;;;2.10;1.15;;;18.50;99.90;;;;;;4970189;28;20027;-72
2022/02/09 18:32:52;;;;;;;1.50;0.95;;;18.60;99.90;;;;;;4973125;28;20046;-72
2022/02/09 18:45:44;;;;;;;2.97;1.10;;;18.50;99.90;;;;;;4970888;28;20027;-73
2022/02/09 19:04:39;;;;;;;1.00;0.70;;;18.40;99.90;;;;;;4971148;28;20524;-73
2022/02/09 19:15:43;;;;;;;3.55;1.20;;;18.30;99.90;;;;;;4970737;28;20050;-75
2022/02/09 19:26:34;;;;;;;1.57;1.17;;;18.20;99.90;;;;;;4970006;28;20155;-76
2022/02/09 19:31:41;;;;;;;3.30;1.48;;;18.20;99.90;;;;;;4983503;28;20030;-72
2022/02/09 19:48:09;;;;;;;4.55;1.10;;;18.20;99.90;;;;;;4970506;28;20027;-73
2022/02/09 19:51:05;;;;;;;;;;;18.20;99.90;;;;;;4970295;28;20378;-73
2022/02/09 19:56:19;;;;;;;9.60;2.40;;;18.20;99.90;;;;;;4961519;28;20434;-73
2022/02/09 19:59:02;;;;;;;4.13;1.67;;;18.20;99.90;;;;;;4965102;28;20023;-72
2022/02/09 20:01:36;;;;;;;3.05;1.30;;;18.10;99.90;;;;;;4965455;28;20035;-72
2022/02/09 20:04:07;;;;;;;1.17;0.80;;;18.20;99.90;;;;;;4970423;28;20022;-72
2022/02/09 20:06:36;;;;;;;1.95;1.20;;;18.20;99.90;;;;;;4968560;28;20110;-72
2022/02/09 20:09:04;;;;;;;3.33;1.42;;;18.20;99.90;;;;;;4969874;28;20039;-73
2022/02/09 20:11:32;;;;;;;3.05;1.15;;;18.30;99.90;;;;;;4970215;28;20038;-77
2022/02/09 20:14:00;;;;;;;3.72;1.40;;;18.40;99.90;;;;;;4971123;28;20073;-78
2022/02/09 20:16:27;;;;;;;2.58;1.40;;;18.50;99.90;;;;;;4969617;28;20030;-78
2022/02/09 20:18:56;;;;;;;2.22;2.00;;;18.60;99.90;;;;;;4969531;28;20490;-77
2022/02/09 20:21:25;;;;;;;1.63;1.20;;;18.70;99.90;;;;;;4969700;28;20066;-78
2022/02/09 20:23:56;;;;;;;8.18;1.77;;;18.80;99.90;;;;;;4971453;28;20031;-80
2022/02/09 20:26:25;;;;;;;3.60;1.38;;;18.90;99.90;;;;;;4969148;28;20042;-77
2022/02/09 20:28:58;;;;;;;2.10;1.20;;;19.00;99.90;;;;;;4971407;28;20137;-77
2022/02/09 20:31:31;;;;;;;3.63;1.40;;;19.10;99.90;;;;;;4952028;28;20331;-79
2022/02/09 20:34:06;;;;;;;4.97;1.35;;;19.20;99.90;;;;;;4970236;28;20101;-80
2022/02/09 20:36:34;;;;;;;1.40;1.13;;;19.30;99.90;;;;;;4973749;28;20482;-80
2022/02/09 20:39:04;;;;;;;3.45;1.70;;;19.40;99.90;;;;;;4977017;28;20027;-79
2022/02/09 20:41:34;;;;;;;3.45;1.15;;;19.50;99.90;;;;;;4969663;28;20089;-77
2022/02/09 20:44:20;;;;;;;2.47;1.70;;;19.60;99.90;;;;;;4971891;28;20526;-77
2022/02/09 20:46:47;;;;;;;;;;;19.70;99.90;;;;;;4969054;28;20035;-77
2022/02/09 20:49:14;;;;;;;2.35;1.02;;;19.90;99.90;;;;;;4971080;28;20234;-78
2022/02/09 20:51:41;;;;;;;3.22;0.98;;;20.00;99.90;;;;;;4965998;28;20035;-79
2022/02/09 20:54:09;;;;;;;1.77;0.82;;;20.10;99.90;;;;;;4969010;28;20078;-72
2022/02/09 20:56:36;;;;;;;6.25;1.00;;;20.30;99.90;;;;;;4969283;28;20023;-78
2022/02/09 20:59:08;;;;;;;2.17;0.80;;;20.50;99.90;;;;;;4962103;28;20063;-72
2022/02/09 21:57:59;;;;;;;3.35;0.60;;;25.00;97.10;;;;;;4983439;28;20042;-75
2022/02/09 22:00:42;;;;;;;3.50;0.82;;;25.20;96.50;;;;;;4981953;28;20307;-72
2022/02/09 22:27:26;;;;;;;3.20;0.60;;;27.40;92.50;;;;;;4983786;28;20915;-73
2022/02/09 22:54:34;;;;;;;3.70;0.73;;;29.40;87.90;;;;;;4978555;28;20117;-72
2022/02/09 22:57:02;;;;;;;1.05;0.60;;;29.40;85.90;;;;;;4984001;28;20039;-73
2022/02/09 22:59:59;;;;;;;1.25;0.60;;;29.50;84.40;;;;;;4981763;28;20027;-73
2022/02/09 23:02:53;;;;;;;4.80;1.02;;;29.50;84.70;;;;;;4976146;28;20069;-73
2022/02/09 23:13:15;;;;;;;1.30;0.45;;;30.50;84.60;;;;;;4976833;28;19964;-74
2022/02/09 23:19:29;;;;;;;2.28;0.60;;;31.00;84.30;;;;;;4985073;28;20045;-72
2022/02/09 23:54:30;;;;;;;0.88;0.40;;;32.60;79.50;;;;;;4980169;28;20130;-74
2022/02/09 23:57:39;;;;;;;2.08;0.65;;;32.90;79.10;;;;;;4976598;28;20038;-74
